Rapports des METAR proches

 

LFAQ - Bray, France
Distance from station: SSO 19km
Mise à jour: 26/05/2022 08:30
Couvert
Couvert
 Vent O
Vent: O 20 km/h
Température: 13°C
Point de rosée: 11°C
Humidité: 88%
Baromètre: 1023 hPa
Clouds: Couvert
Visibility: 10 km
Cloud details: Quelques nuages 396 m
Très nuageux 732 m
Couvert 1006 m
2022/05/26 06:30 LFAQ 260630Z AUTO 27011KT 9999 FEW013 BKN024 OVC033 13/11 Q1023 TEMPO BKN012
LFQQ - Lille/Lesquin, France
Distance from station: NNE 53km
Mise à jour: 26/05/2022 09:00
Couvert
Couvert
 Vent O
Vent: O 22 km/h
Température: 15°C
Point de rosée: 12°C
Humidité: 82%
Baromètre: 1022 hPa
Clouds: Couvert
Visibility: 10 km
Cloud details: Couvert 518 m
2022/05/26 07:00 LFQQ 260700Z AUTO 26012KT 9999 OVC017 15/12 Q1022 TEMPO BKN010
EBCV - Chievres Ab, Belgium
Distance from station: NE 88km
Mise à jour: 26/05/2022 08:55
Couvert
Couvert
 Vent O
Vent: O 13 km/h
Température: 14°C
Point de rosée: 12°C
Humidité: 88%
Baromètre: 1022 hPa
Clouds: Couvert
Visibility: 10 km
Cloud details: Couvert 335 m
2022/05/26 06:55 EBCV 260655Z AUTO 26007KT 9999 OVC011/// 14/12 Q1022 GRN
 
LFOB - Beauvais/Tille(A, France
Distance from station: SSO 88km
Mise à jour: 26/05/2022 09:00
Couvert
Couvert
 Vent O
Vent: O 17 km/h
Température: 14°C
Point de rosée: 10°C
Humidité: 77%
Baromètre: 1024 hPa
Clouds: Couvert
Visibility: 10 km
Cloud details: Quelques nuages 518 m
Couvert 945 m
2022/05/26 07:00 LFOB 260700Z AUTO 26009KT 9999 FEW017 OVC031 14/10 Q1024 TEMPO BKN013
LFAT - Le Touquet/P. Pl, France
Distance from station: ONO 93km
Mise à jour: 26/05/2022 09:00
Très nuageux
Très nuageux
 Vent O
Vent: O 19 km/h
Température: 15°C
Point de rosée: 12°C
Humidité: 82%
Baromètre: 1023 hPa
Clouds: Très nuageux
Visibility: 10 km
Cloud details: Très nuageux 274 m
2022/05/26 07:00 LFAT 260700Z AUTO 26010KT 220V300 9999 BKN009 15/12 Q1023 NOSIG
EBFN - Koksijde (bel-Af, Belgium
Distance from station: N 105km
Mise à jour: 26/05/2022 08:55
Quelques nuages
Quelques nuages
 Vent OSO
Vent: OSO 15 km/h
Température: 15°C
Point de rosée: 11°C
Humidité: 77%
Baromètre: 1021 hPa
Clouds: Quelques nuages
Visibility: 10 km
Cloud details: Quelques nuages 366 m
2022/05/26 06:55 EBFN 260655Z AUTO 24008KT 9999 FEW012/// 15/11 Q1021 BLU
 
EBOS - Oostende Airport, Belgium
Distance from station: N 119km
Mise à jour: 26/05/2022 08:50
Partiellement nuageux
Partiellement nuageux
 Vent OSO
Vent: OSO 24 km/h
Température: 14°C
Point de rosée: 11°C
Humidité: 82%
Baromètre: 1021 hPa
Clouds: Partiellement nuageux
Visibility: 10 km
Cloud details: Quelques nuages 274 m
Partiellement nuageux 366 m
2022/05/26 06:50 EBOS 260650Z 25013KT 9999 FEW009 SCT012 14/11 Q1021 NOSIG
EBCI - Charleroi/Gossel, Belgium
Distance from station: ENE 124km
Mise à jour: 26/05/2022 08:50
Très nuageux
Très nuageux
 Vent OSO
Vent: OSO 17 km/h
Température: 13°C
Point de rosée: 10°C
Humidité: 82%
Baromètre: 1022 hPa
Clouds: Très nuageux
Visibility: 10 km
Cloud details: Partiellement nuageux 366 m
Très nuageux 518 m
2022/05/26 06:50 EBCI 260650Z 25009KT 230V290 9999 SCT012 BKN017 13/10 Q1022 NOSIG
LFPG - Charles De Gaull, France
Distance from station: S 125km
Mise à jour: 26/05/2022 09:00
Très nuageux
Très nuageux
 Vent O
Vent: O 19 km/h
Température: 14°C
Point de rosée: 11°C
Humidité: 82%
Baromètre: 1025 hPa
Clouds: Très nuageux
Visibility: 10 km
Cloud details: Très nuageux 366 m
Très nuageux 1097 m
2022/05/26 07:00 LFPG 260700Z 27010KT 9999 BKN012 BKN036 14/11 Q1025 BECMG BKN030
 
LFPT - Cormeilles Vexin, France
Distance from station: SSO 127km
Mise à jour: 26/05/2022 09:00
Couvert
Couvert
 Vent O
Vent: O 15 km/h
Température: 14°C
Point de rosée: 11°C
Humidité: 82%
Baromètre: 1025 hPa
Clouds: Couvert
Visibility: 10 km
Cloud details: Très nuageux 823 m
Couvert 1006 m
2022/05/26 07:00 LFPT 260700Z AUTO 28008KT 250V320 9999 BKN027 OVC033 14/11 Q1025
LFPB - Paris/Le Bourget, France
Distance from station: S 132km
Mise à jour: 26/05/2022 09:00
Très nuageux
Très nuageux
 Vent O
Vent: O 13 km/h
Température: 14°C
Point de rosée: 11°C
Humidité: 82%
Baromètre: 1025 hPa
Clouds: Très nuageux
Visibility: 10 km
Cloud details: Quelques nuages 427 m
Très nuageux 762 m
Très nuageux 1006 m
2022/05/26 07:00 LFPB 260700Z AUTO 27007KT 240V310 9999 FEW014 BKN025 BKN033 14/11 Q1025 TEMPO BKN014
EBFS - Florennes (bel-A, Belgium
Distance from station: E 133km
Mise à jour: 26/05/2022 08:55
Couvert
Couvert
 Vent O
Vent: O 19 km/h
Température: 13°C
Point de rosée: 10°C
Humidité: 82%
Baromètre: 1022 hPa
Clouds: Couvert
Visibility: 10 km
Cloud details: Quelques nuages 396 m
Couvert 610 m
2022/05/26 06:55 EBFS 260655Z AUTO 27010KT 9999 FEW013/// OVC020/// 13/10 Q1022 WHT
 
LFQA - Reims/Prunay, France
Distance from station: SE 143km
Mise à jour: 26/05/2022 09:00
Très nuageux
Très nuageux
 Vent ONO
Vent: ONO 15 km/h
Température: 16°C
Point de rosée: 11°C
Humidité: 72%
Baromètre: 1024 hPa
Clouds: Très nuageux
Visibility: 10 km
Cloud details: Très nuageux 549 m
Très nuageux 1494 m
2022/05/26 07:00 LFQA 260700Z AUTO 29008KT 260V320 9999 BKN018 BKN049 16/11 Q1024
LFOP - Rouen/Boos (aut), France
Distance from station: SO 144km
Mise à jour: 26/05/2022 09:00
Couvert
Couvert
 Vent O
Vent: O 13 km/h
Température: 13°C
Point de rosée: 11°C
Humidité: 88%
Baromètre: 1024 hPa
Clouds: Couvert
Visibility: 10 km
Cloud details: Couvert 823 m
2022/05/26 07:00 LFOP 260700Z AUTO 26007KT 240V300 9999 OVC027 13/11 Q1024 TEMPO BKN013
EBBR - Brussels Nationa, Belgium
Distance from station: NE 148km
Mise à jour: 26/05/2022 08:50
Très nuageux
Très nuageux
 Vent O
Vent: O 19 km/h
Température: 14°C
Point de rosée: 11°C
Humidité: 82%
Baromètre: 1022 hPa
Clouds: Très nuageux
Visibility: 10 km
Cloud details: Très nuageux 427 m
2022/05/26 06:50 EBBR 260650Z 26010KT 9999 BKN014 14/11 Q1022 BECMG BKN016
 
EBBE - Beauvechain (baf, Belgium
Distance from station: ENE 156km
Mise à jour: 26/05/2022 08:55
Couvert
Couvert
 Vent OSO
Vent: OSO 19 km/h
Température: 14°C
Point de rosée: 11°C
Humidité: 82%
Baromètre: 1022 hPa
Clouds: Couvert
Visibility: 10 km
Cloud details: Partiellement nuageux 396 m
Couvert 488 m
2022/05/26 06:55 EBBE 260655Z AUTO 25010KT 9999 SCT013/// OVC016/// 14/11 Q1022 GRN
EHFS - Vlissingen, Netherlands
Distance from station: NNE 157km
Mise à jour: 26/05/2022 08:55
Couvert
Couvert
 Vent OSO
Vent: OSO 30 km/h
Température: 15°C
Point de rosée: 12°C
Humidité: 82%
Baromètre: 1020 hPa
Clouds: Couvert
Visibility: 10 km
Cloud details: Partiellement nuageux 366 m
Très nuageux 427 m
Couvert 488 m
2022/05/26 06:55 EHFS 260655Z AUTO 25016KT 9999 SCT012/// BKN014/// OVC016/// 15/12 Q1020
LFPV - Villacoublay/Vel, France
Distance from station: SSO 157km
Mise à jour: 26/05/2022 09:00
Couvert
Couvert
 Vent O
Vent: O 17 km/h
Température: 14°C
Point de rosée: 10°C
Humidité: 77%
Baromètre: 1025 hPa
Clouds: Couvert
Visibility: 10 km
Cloud details: Très nuageux 488 m
Très nuageux 975 m
Couvert 1219 m
2022/05/26 07:00 LFPV 260700Z AUTO 27009KT 240V310 9999 BKN016 BKN032 OVC040 14/10 Q1025 TEMPO BKN014
 
EGMD - Lydd Airport, United Kingdom
Distance from station: NO 160km
Mise à jour: 26/05/2022 08:50
Clair
Clair
 Vent O
Vent: O 24 km/h
Température: 14°C
Point de rosée: 12°C
Humidité: 88%
Baromètre: 1022 hPa
Clouds: Clair
Visibility: 10 km
2022/05/26 06:50 EGMD 260650Z AUTO 26013KT 9999 NCD 14/12 Q1022